Time;durP1;ratioP1;P1;durP2;ratioP2;P2;SDS_P1;SDS_P2;PMS_P1;PMS_P2;Temp;Humidity;BMP_temperature;BMP_pressure;BME280_temperature;BME280_humidity;BME280_pressure;Samples;Min_cycle;Max_cycle;Signal;HPM_P1;HPM_P2
2023/06/24 00:01:16;;;;;;;;;3.50;3.50;;;;;21.35;51.40;101908.34;5062011;28;45896;-77
2023/06/24 00:03:46;;;;;;;;;7.75;6.75;;;;;21.32;51.61;101915.63;5054276;28;46919;-77
2023/06/24 00:06:18;;;;;;;;;13.00;8.50;;;;;21.36;51.64;101917.22;5073750;28;46969;-77
2023/06/24 00:08:56;;;;;;;;;3.25;2.00;;;;;21.33;51.93;101920.88;5074408;28;45342;-77
2023/06/24 00:11:22;;;;;;;;;12.75;10.00;;;;;21.27;52.03;101921.22;5076707;28;45518;-77
2023/06/24 00:13:47;;;;;;;;;9.25;5.00;;;;;21.20;52.04;101906.53;5072100;27;56283;-77
2023/06/24 00:16:12;;;;;;;;;5.75;5.25;;;;;21.23;51.82;101914.34;5077127;28;51711;-77
2023/06/24 00:18:41;;;;;;;;;5.00;4.75;;;;;21.15;51.93;101909.41;5075890;28;45453;-77
2023/06/24 00:21:07;;;;;;;;;7.75;5.75;;;;;21.18;51.83;101917.25;5064204;28;45590;-77
2023/06/24 00:23:35;;;;;;;;;8.50;7.00;;;;;21.15;52.23;101919.22;5055438;28;45442;-77
2023/06/24 00:26:01;;;;;;;;;12.00;8.50;;;;;21.13;52.41;101913.97;5086978;27;45332;-77
2023/06/24 00:28:26;;;;;;;;;6.00;5.00;;;;;21.11;52.04;101915.84;5073727;28;45325;-77
2023/06/24 00:30:52;;;;;;;;;10.25;8.00;;;;;21.07;52.36;101908.97;5059242;28;46142;-77
2023/06/24 00:33:19;;;;;;;;;4.00;4.00;;;;;20.99;52.09;101901.38;5073703;28;45320;-78
2023/06/24 00:35:44;;;;;;;;;6.25;4.00;;;;;20.93;52.32;101907.03;5074194;28;45249;-78
2023/06/24 00:38:10;;;;;;;;;17.75;11.00;;;;;20.95;52.33;101905.16;5078049;27;45304;-78
2023/06/24 00:40:35;;;;;;;;;12.50;9.00;;;;;20.94;51.98;101910.56;5074148;28;66424;-77
2023/06/24 00:43:02;;;;;;;;;10.25;7.00;;;;;20.91;52.62;101916.91;5072634;27;47466;-77
2023/06/24 00:45:29;;;;;;;;;7.75;6.00;;;;;20.91;52.46;101910.69;5076687;27;46564;-77
2023/06/24 00:47:55;;;;;;;;;6.75;6.50;;;;;20.90;52.26;101909.00;5075981;27;45401;-79
2023/06/24 00:50:21;;;;;;;;;11.50;9.25;;;;;20.88;52.18;101906.41;5078880;27;45386;-79
2023/06/24 00:52:48;;;;;;;;;10.00;5.25;;;;;20.91;52.23;101900.94;5080172;27;46945;-78
2023/06/24 00:55:15;;;;;;;;;6.25;5.00;;;;;20.92;52.29;101907.13;5070296;27;45704;-78
2023/06/24 00:57:42;;;;;;;;;6.25;4.75;;;;;20.88;52.55;101902.91;5105372;27;45331;-79
2023/06/24 01:00:15;;;;;;;;;7.00;6.00;;;;;20.88;52.44;101909.06;5072923;27;45424;-76
2023/06/24 01:02:42;;;;;;;;;4.50;4.00;;;;;20.85;52.85;101912.75;5078897;27;45591;-76
2023/06/24 01:05:08;;;;;;;;;4.25;3.00;;;;;20.84;52.79;101911.03;5071798;28;45656;-76
2023/06/24 01:07:38;;;;;;;;;5.50;4.00;;;;;20.82;52.88;101914.69;5080482;27;45441;-76
2023/06/24 01:10:07;;;;;;;;;7.25;6.25;;;;;20.79;52.57;101915.72;5078909;27;45727;-76
2023/06/24 01:12:40;;;;;;;;;10.00;6.75;;;;;20.76;53.21;101915.88;5076459;28;47278;-77
2023/06/24 01:15:09;;;;;;;;;5.25;4.00;;;;;20.75;53.35;101921.28;5074345;27;45830;-77
2023/06/24 01:18:08;;;;;;;;;6.00;5.00;;;;;20.72;53.28;101919.66;5081355;28;45570;-77
2023/06/24 01:20:46;;;;;;;;;6.00;5.25;;;;;20.68;53.00;101912.72;5080590;28;45560;-76
2023/06/24 01:23:53;;;;;;;;;4.75;4.75;;;;;20.62;53.61;101905.94;5078706;27;47153;-76
2023/06/24 01:26:42;;;;;;;;;8.00;6.75;;;;;20.59;53.61;101910.50;5069639;27;45781;-76
2023/06/24 01:29:44;;;;;;;;;9.25;8.50;;;;;20.56;53.56;101910.69;5075575;27;45900;-76
2023/06/24 01:32:19;;;;;;;;;5.50;5.50;;;;;20.53;53.64;101909.03;5088860;27;45605;-76
2023/06/24 01:34:53;;;;;;;;;10.50;4.50;;;;;20.51;53.44;101916.22;5069064;27;47554;-76
2023/06/24 01:37:28;;;;;;;;;7.00;5.25;;;;;20.47;53.75;101899.56;5070140;28;45457;-76
2023/06/24 01:40:12;;;;;;;;;6.75;5.75;;;;;20.43;53.72;101898.00;5074983;27;45521;-76
2023/06/24 01:42:40;;;;;;;;;8.00;7.00;;;;;20.45;53.74;101905.88;5070724;27;45424;-76
2023/06/24 01:45:07;;;;;;;;;6.50;6.50;;;;;20.43;53.73;101897.13;5089579;27;49311;-76
2023/06/24 01:47:34;;;;;;;;;8.25;5.00;;;;;20.42;53.98;101898.94;5068298;27;46008;-76
2023/06/24 01:50:01;;;;;;;;;4.75;4.50;;;;;20.43;54.23;101900.66;5077022;27;45551;-77
2023/06/24 01:52:29;;;;;;;;;7.00;5.75;;;;;20.39;54.25;101891.09;5076172;28;45550;-76
2023/06/24 01:54:55;;;;;;;;;10.00;5.75;;;;;20.37;54.05;101892.97;5073765;28;45525;-76
2023/06/24 01:57:21;;;;;;;;;6.00;5.00;;;;;20.34;54.21;101898.44;5075779;27;58383;-76
2023/06/24 01:59:48;;;;;;;;;7.25;6.00;;;;;20.33;54.34;101899.41;5079551;27;45351;-76
2023/06/24 02:02:14;;;;;;;;;4.75;4.25;;;;;20.29;54.13;101893.38;5076384;27;69008;-78
2023/06/24 02:04:40;;;;;;;;;4.25;4.00;;;;;20.26;54.36;101888.19;5073003;28;47229;-75
2023/06/24 02:07:06;;;;;;;;;6.00;6.00;;;;;20.24;54.53;101890.06;5061879;27;46636;-77
2023/06/24 02:09:33;;;;;;;;;4.75;4.50;;;;;20.20;54.37;101883.19;5076183;27;56347;-76
2023/06/24 02:12:00;;;;;;;;;6.25;6.00;;;;;20.19;54.39;101886.78;5062099;28;45618;-75
2023/06/24 02:14:27;;;;;;;;;7.50;4.75;;;;;20.20;54.58;101893.84;5072792;27;47426;-78
2023/06/24 02:16:56;;;;;;;;;5.75;4.00;;;;;20.19;54.23;101893.91;5069789;27;45489;-76
2023/06/24 02:19:22;;;;;;;;;4.00;4.00;;;;;20.16;54.72;101892.25;5076301;28;46069;-75
2023/06/24 02:21:48;;;;;;;;;6.25;5.25;;;;;20.18;54.71;101902.81;5073634;27;45377;-76
2023/06/24 02:24:14;;;;;;;;;4.00;4.00;;;;;20.15;54.53;101901.16;5077395;27;45580;-76
2023/06/24 02:26:40;;;;;;;;;6.50;5.00;;;;;20.14;54.59;101904.75;5074644;27;45642;-76
2023/06/24 02:29:09;;;;;;;;;6.00;4.75;;;;;20.10;54.61;101897.88;5077347;27;45496;-76
2023/06/24 02:31:34;;;;;;;;;4.50;4.50;;;;;20.11;54.72;101902.22;5078497;27;45498;-76
2023/06/24 02:34:00;;;;;;;;;5.75;3.75;;;;;20.06;55.19;101899.81;5071190;27;45334;-76
2023/06/24 02:36:25;;;;;;;;;5.50;5.00;;;;;20.04;54.70;101898.16;5075215;28;72221;-76
2023/06/24 02:38:50;;;;;;;;;4.25;4.00;;;;;20.00;54.99;101893.94;5072912;27;66225;-76
2023/06/24 02:41:15;;;;;;;;;6.50;4.75;;;;;19.99;55.21;101893.06;5071651;28;71243;-75
2023/06/24 02:43:41;;;;;;;;;5.50;3.25;;;;;19.96;54.91;101898.53;5078531;27;64549;-75
2023/06/24 02:46:07;;;;;;;;;6.00;6.00;;;;;19.97;55.23;101910.00;5072957;27;67290;-75
2023/06/24 02:48:34;;;;;;;;;8.25;5.25;;;;;19.91;55.46;101897.88;5077572;27;45441;-75
2023/06/24 02:51:00;;;;;;;;;5.00;5.00;;;;;19.92;55.69;101897.81;5073662;27;72045;-75
2023/06/24 02:53:27;;;;;;;;;7.75;5.50;;;;;19.91;55.50;101892.56;5068108;27;45705;-75
2023/06/24 02:55:54;;;;;;;;;7.75;4.25;;;;;19.91;55.28;101900.53;5094483;27;45275;-75
2023/06/24 02:58:19;;;;;;;;;7.00;3.25;;;;;19.91;55.35;101903.19;5077514;27;45426;-75
2023/06/24 03:00:45;;;;;;;;;5.75;5.75;;;;;19.89;55.52;101900.63;5074597;27;73582;-75
2023/06/24 03:03:11;;;;;;;;;6.25;6.25;;;;;19.86;55.74;101897.25;5072040;28;48149;-74
2023/06/24 03:05:37;;;;;;;;;7.75;6.25;;;;;19.86;55.94;101895.44;5073486;27;45382;-75
2023/06/24 03:08:05;;;;;;;;;7.75;5.75;;;;;19.86;55.87;101894.59;5074137;27;45386;-75
2023/06/24 03:10:31;;;;;;;;;8.50;6.75;;;;;19.84;56.16;101889.34;5075688;28;45284;-76
2023/06/24 03:12:56;;;;;;;;;7.75;5.00;;;;;19.85;55.52;101899.03;5076956;28;47077;-76
2023/06/24 03:15:21;;;;;;;;;8.25;6.25;;;;;19.81;55.69;101897.44;5077498;27;73295;-75
2023/06/24 03:17:47;;;;;;;;;9.00;7.25;;;;;19.81;55.94;101899.25;5074606;27;45595;-76
2023/06/24 03:20:12;;;;;;;;;8.00;7.00;;;;;19.76;55.63;101894.19;5073121;28;65939;-76
2023/06/24 03:22:38;;;;;;;;;9.50;7.25;;;;;19.77;55.93;101900.34;5075779;27;59539;-76
2023/06/24 03:25:03;;;;;;;;;8.25;7.00;;;;;19.72;56.15;101895.19;5076502;28;45546;-75
2023/06/24 03:27:31;;;;;;;;;7.75;5.75;;;;;19.71;56.15;101894.34;5070398;28;45422;-75
2023/06/24 03:29:56;;;;;;;;;6.00;4.50;;;;;19.69;56.21;101890.91;5075134;27;45437;-74
2023/06/24 03:32:21;;;;;;;;;9.25;6.75;;;;;19.67;56.26;101894.56;5055984;28;66565;-75
2023/06/24 03:34:47;;;;;;;;;5.75;3.00;;;;;19.65;56.28;101893.75;5073562;27;62007;-75
2023/06/24 03:37:12;;;;;;;;;5.00;5.00;;;;;19.63;56.40;101887.66;5079269;27;45386;-75
2023/06/24 03:39:37;;;;;;;;;5.00;4.25;;;;;19.62;56.40;101892.13;5067753;28;71360;-75
2023/06/24 03:42:03;;;;;;;;;8.25;5.50;;;;;19.59;56.38;101886.94;5062292;28;56014;-75
2023/06/24 03:44:28;;;;;;;;;7.50;5.75;;;;;19.60;56.57;101891.34;5074353;28;45386;-75
2023/06/24 03:46:54;;;;;;;;;6.75;5.00;;;;;19.60;56.74;101903.75;5076616;28;45438;-75
2023/06/24 03:49:19;;;;;;;;;5.75;5.75;;;;;19.57;56.63;101903.91;5074223;28;45481;-76
2023/06/24 03:51:44;;;;;;;;;6.75;5.00;;;;;19.56;56.43;101904.81;5074110;28;46801;-75
2023/06/24 03:54:10;;;;;;;;;7.00;5.75;;;;;19.54;56.47;101904.88;5073979;28;75296;-75
2023/06/24 03:56:35;;;;;;;;;7.50;5.00;;;;;19.51;56.51;101903.25;5072878;27;61802;-75
2023/06/24 03:59:00;;;;;;;;;7.00;5.00;;;;;19.48;56.87;101903.38;5074061;27;56912;-75
2023/06/24 04:01:26;;;;;;;;;6.25;6.00;;;;;19.48;56.77;101906.03;5068190;28;47439;-75
2023/06/24 04:03:51;;;;;;;;;6.50;5.50;;;;;19.46;57.01;101915.88;5072635;27;50673;-75
2023/06/24 04:06:16;;;;;;;;;10.25;6.00;;;;;19.48;57.07;101913.16;5071832;28;45239;-75
2023/06/24 04:08:43;;;;;;;;;5.25;5.00;;;;;19.47;56.70;101916.72;5055027;28;45539;-75
2023/06/24 04:11:08;;;;;;;;;6.00;6.00;;;;;19.49;57.17;101922.81;5092520;27;48458;-75
2023/06/24 04:13:33;;;;;;;;;6.00;4.25;;;;;19.46;57.10;101920.28;5074968;27;45664;-75
2023/06/24 04:15:59;;;;;;;;;6.00;6.00;;;;;19.50;56.79;101925.41;5077787;27;66086;-75
2023/06/24 04:18:25;;;;;;;;;8.00;7.00;;;;;19.50;56.84;101914.78;5073891;28;52531;-75
2023/06/24 04:20:50;;;;;;;;;7.00;6.00;;;;;19.51;56.87;101912.97;5079335;27;46105;-75
2023/06/24 04:23:18;;;;;;;;;8.75;6.00;;;;;19.52;56.70;101914.72;5080260;27;45534;-75
2023/06/24 04:25:44;;;;;;;;;6.75;6.00;;;;;19.51;56.95;101915.63;5076053;27;61519;-75
2023/06/24 04:28:09;;;;;;;;;7.75;7.00;;;;;19.51;56.88;101908.56;5077048;27;60100;-76
2023/06/24 04:30:41;;;;;;;;;7.50;6.00;;;;;19.52;56.87;101914.72;5080295;27;47105;-76
2023/06/24 04:33:07;;;;;;;;;7.00;5.25;;;;;19.52;57.07;101909.41;5077530;27;46528;-65
2023/06/24 04:35:32;;;;;;;;;5.50;5.50;;;;;19.55;57.01;101914.59;5073897;27;45447;-65
2023/06/24 04:37:58;;;;;;;;;7.00;5.00;;;;;19.53;57.19;101912.00;5075356;27;45467;-65
2023/06/24 04:40:23;;;;;;;;;10.00;7.00;;;;;19.53;57.07;101912.00;5080072;27;55068;-65
2023/06/24 04:42:48;;;;;;;;;19.75;16.50;;;;;19.51;57.42;101908.56;5076890;28;63896;-65
2023/06/24 04:45:14;;;;;;;;;8.00;5.75;;;;;19.54;57.20;101908.41;5077243;28;61676;-65
2023/06/24 04:47:43;;;;;;;;;7.75;5.75;;;;;19.51;57.63;101910.31;5077892;27;45319;-65
2023/06/24 04:50:12;;;;;;;;;6.75;4.50;;;;;19.49;57.25;101918.34;5110026;27;45327;-65
2023/06/24 04:52:38;;;;;;;;;8.50;7.00;;;;;19.49;57.72;101912.19;5080317;27;45443;-65
2023/06/24 04:55:04;;;;;;;;;6.25;5.00;;;;;19.47;57.50;101920.22;5063362;28;45415;-65
2023/06/24 04:57:31;;;;;;;;;7.00;4.50;;;;;19.49;57.05;101915.72;5082225;27;45444;-65
2023/06/24 04:59:57;;;;;;;;;8.50;8.00;;;;;19.52;57.37;101912.91;5088709;27;46113;-65
2023/06/24 05:02:23;;;;;;;;;11.25;6.75;;;;;19.56;57.02;101920.75;5078506;27;45319;-65
2023/06/24 05:04:48;;;;;;;;;11.00;7.50;;;;;19.56;57.46;101924.25;5077565;27;45223;-65
2023/06/24 05:07:14;;;;;;;;;9.50;5.00;;;;;19.58;57.23;101918.88;5079732;27;45519;-65
2023/06/24 05:09:39;;;;;;;;;7.00;5.50;;;;;19.61;57.30;101918.75;5080527;28;46580;-65
2023/06/24 05:12:05;;;;;;;;;6.75;4.75;;;;;19.62;56.89;101917.78;5075913;28;59129;-64
2023/06/24 05:14:31;;;;;;;;;7.75;6.50;;;;;19.64;56.87;101919.47;5080226;27;45331;-65
2023/06/24 05:16:56;;;;;;;;;5.00;5.00;;;;;19.63;57.25;101923.03;5081084;27;63803;-65
2023/06/24 05:19:21;;;;;;;;;11.50;6.00;;;;;19.63;57.01;101925.69;5078300;27;52735;-64
2023/06/24 05:21:47;;;;;;;;;10.00;8.00;;;;;19.62;57.21;101917.78;5064469;27;59181;-65
2023/06/24 05:24:12;;;;;;;;;6.25;5.00;;;;;19.59;56.80;101913.50;5070411;28;62863;-64
2023/06/24 05:26:37;;;;;;;;;11.25;6.00;;;;;19.59;56.76;101920.63;5079720;27;64675;-65
2023/06/24 05:29:03;;;;;;;;;6.00;6.00;;;;;19.58;57.25;101914.44;5075266;28;69677;-65
2023/06/24 05:31:28;;;;;;;;;9.25;7.50;;;;;19.61;57.24;101924.91;5078051;28;45664;-65
2023/06/24 05:33:54;;;;;;;;;10.75;6.00;;;;;19.61;56.75;101922.25;5075119;27;45403;-65
2023/06/24 05:36:19;;;;;;;;;7.00;7.00;;;;;19.67;56.97;101922.00;5080502;27;45583;-64
2023/06/24 05:38:44;;;;;;;;;9.50;6.50;;;;;19.63;56.83;101915.06;5076905;27;76680;-64
2023/06/24 05:41:10;;;;;;;;;9.50;7.25;;;;;19.66;56.76;101930.88;5074979;27;45253;-66
2023/06/24 05:43:35;;;;;;;;;7.50;5.75;;;;;19.70;57.00;101927.13;5078324;28;45609;-65
2023/06/24 05:46:00;;;;;;;;;8.25;5.75;;;;;19.75;56.66;101921.66;5079245;27;45458;-65
2023/06/24 05:48:26;;;;;;;;;12.75;6.00;;;;;19.79;56.64;101925.88;5075683;27;75030;-64
2023/06/24 05:50:51;;;;;;;;;5.75;4.25;;;;;19.85;56.41;101927.41;5079145;27;67802;-64
2023/06/24 05:53:16;;;;;;;;;6.25;5.75;;;;;19.93;56.24;101927.91;5076425;27;53747;-64
2023/06/24 05:55:42;;;;;;;;;9.75;6.00;;;;;20.01;56.09;101917.78;5079709;27;45416;-64
2023/06/24 05:58:07;;;;;;;;;11.00;6.75;;;;;20.05;55.97;101927.31;5078255;28;52595;-65
2023/06/24 06:00:32;;;;;;;;;10.25;8.75;;;;;20.07;55.59;101920.13;5074401;27;45473;-64
2023/06/24 06:02:57;;;;;;;;;9.50;7.50;;;;;20.10;55.59;101925.28;5083200;27;69712;-64
2023/06/24 06:05:23;;;;;;;;;7.50;6.25;;;;;20.15;55.67;101930.41;5088186;27;45359;-64
2023/06/24 06:07:48;;;;;;;;;9.00;5.75;;;;;20.29;55.05;101922.63;5076936;27;57808;-65
2023/06/24 06:10:17;;;;;;;;;5.75;5.50;;;;;20.36;55.24;101923.19;5078432;27;68102;-66
2023/06/24 06:12:42;;;;;;;;;10.50;7.50;;;;;20.43;54.50;101929.03;5078203;28;45303;-66
2023/06/24 06:15:08;;;;;;;;;6.00;5.50;;;;;20.50;54.77;101919.81;5075607;27;45616;-65
2023/06/24 06:17:34;;;;;;;;;10.50;7.50;;;;;20.56;54.28;101924.84;5076918;28;46660;-66
2023/06/24 06:19:59;;;;;;;;;7.75;4.75;;;;;20.61;54.16;101924.59;5075369;27;45362;-66
2023/06/24 06:22:24;;;;;;;;;9.25;7.00;;;;;20.69;53.86;101922.44;5077411;28;45501;-65
2023/06/24 06:24:50;;;;;;;;;7.50;5.00;;;;;20.73;53.42;101926.66;5077318;28;66464;-65
2023/06/24 06:27:15;;;;;;;;;5.50;4.50;;;;;20.83;53.16;101922.59;5079023;28;65814;-65
2023/06/24 06:29:41;;;;;;;;;4.25;4.00;;;;;20.87;52.95;101917.97;5074053;27;45417;-65
2023/06/24 06:32:06;;;;;;;;;6.00;5.00;;;;;20.88;52.38;101924.19;5077824;28;45402;-65
2023/06/24 06:34:32;;;;;;;;;5.00;3.50;;;;;20.89;52.41;101928.56;5077686;28;45453;-66
2023/06/24 06:36:57;;;;;;;;;5.75;4.75;;;;;20.93;52.62;101924.78;5074106;27;66923;-66
2023/06/24 06:39:22;;;;;;;;;6.00;4.75;;;;;20.96;52.37;101927.28;5073704;27;61967;-66
2023/06/24 06:41:48;;;;;;;;;9.00;5.50;;;;;21.00;52.56;101923.53;5076770;28;57112;-66
2023/06/24 06:44:13;;;;;;;;;5.50;4.75;;;;;21.09;52.11;101919.53;5074659;28;64892;-65
2023/06/24 06:46:38;;;;;;;;;8.25;6.00;;;;;21.16;52.14;101919.13;5078972;28;47156;-64
2023/06/24 06:49:03;;;;;;;;;7.25;5.00;;;;;21.24;51.75;101922.25;5074288;27;71972;-65
2023/06/24 06:51:29;;;;;;;;;5.00;5.00;;;;;21.38;52.05;101925.97;5060311;28;45541;-65
2023/06/24 06:53:54;;;;;;;;;4.50;4.00;;;;;21.51;52.06;101926.19;5073972;27;45802;-64
2023/06/24 06:56:27;;;;;;;;;5.00;5.00;;;;;21.59;51.55;101926.66;5066182;28;56636;-64
2023/06/24 06:58:52;;;;;;;;;6.75;5.00;;;;;21.64;51.10;101923.72;5072806;28;45748;-64
2023/06/24 07:01:18;;;;;;;;;4.75;3.25;;;;;21.73;51.46;101925.91;5087739;27;45186;-65
2023/06/24 07:03:43;;;;;;;;;6.00;4.75;;;;;21.78;50.91;101919.38;5069343;27;45648;-72
2023/06/24 07:06:09;;;;;;;;;6.00;4.25;;;;;21.91;50.79;101918.69;5068275;27;47751;-73
2023/06/24 07:08:35;;;;;;;;;8.75;4.00;;;;;21.96;49.98;101916.63;5075716;27;45413;-77
2023/06/24 07:11:01;;;;;;;;;5.25;4.00;;;;;22.04;50.18;101916.19;5077213;27;45348;-75
2023/06/24 07:13:26;;;;;;;;;4.25;4.00;;;;;22.12;50.26;101916.63;5077494;27;45461;-70
2023/06/24 07:15:51;;;;;;;;;6.50;5.00;;;;;22.18;50.23;101918.94;5092214;27;72974;-75
2023/06/24 07:18:17;;;;;;;;;7.00;4.00;;;;;22.21;49.82;101912.56;5075596;27;66695;-72
2023/06/24 07:20:42;;;;;;;;;5.75;4.75;;;;;22.26;49.80;101916.69;5070281;27;51142;-70
2023/06/24 07:23:07;;;;;;;;;6.25;5.00;;;;;22.30;49.72;101912.06;5061603;28;45450;-71
2023/06/24 07:25:34;;;;;;;;;9.50;8.25;;;;;22.33;48.55;101915.41;5070696;27;45543;-71
2023/06/24 07:27:59;;;;;;;;;4.75;4.00;;;;;22.37;48.72;101910.78;5043539;28;45465;-70
2023/06/24 07:30:24;;;;;;;;;6.00;4.75;;;;;22.41;48.68;101906.97;5077635;27;45426;-71
2023/06/24 07:32:50;;;;;;;;;8.75;5.75;;;;;22.47;48.67;101909.28;5069422;27;64717;-70
2023/06/24 07:35:16;;;;;;;;;6.00;5.25;;;;;22.52;48.44;101907.22;5078624;28;45645;-70
2023/06/24 07:37:41;;;;;;;;;4.75;4.50;;;;;22.55;48.77;101912.34;5074071;27;45804;-70
2023/06/24 07:40:07;;;;;;;;;5.00;4.00;;;;;22.61;48.62;101913.81;5053643;28;45361;-70
2023/06/24 07:42:33;;;;;;;;;8.00;7.25;;;;;22.64;48.17;101913.59;5066041;27;45514;-72
2023/06/24 07:44:58;;;;;;;;;8.75;5.00;;;;;22.67;48.90;101912.59;5069422;28;45476;-72
2023/06/24 07:47:24;;;;;;;;;5.00;4.25;;;;;22.78;48.52;101915.47;5077966;28;45223;-72
2023/06/24 07:49:49;;;;;;;;;4.25;4.25;;;;;22.87;48.45;101914.06;5072965;28;45792;-72
2023/06/24 07:52:14;;;;;;;;;7.25;5.25;;;;;22.94;48.48;101920.75;5079052;28;58701;-72
2023/06/24 07:54:41;;;;;;;;;5.00;4.75;;;;;23.00;48.67;101909.72;5078181;28;50265;-72
2023/06/24 07:57:06;;;;;;;;;4.75;4.75;;;;;23.09;48.23;101917.19;5079381;28;45718;-72
2023/06/24 07:59:31;;;;;;;;;6.25;4.25;;;;;23.17;48.42;101921.19;5082961;27;62829;-71
2023/06/24 08:01:57;;;;;;;;;6.25;4.25;;;;;23.18;47.90;101907.75;5063780;28;45539;-72
2023/06/24 08:04:22;;;;;;;;;5.50;4.25;;;;;23.22;47.65;101916.44;5075785;27;46442;-72
2023/06/24 08:06:47;;;;;;;;;6.50;3.25;;;;;23.25;47.84;101910.91;5081232;28;45350;-72
2023/06/24 08:09:13;;;;;;;;;4.75;3.50;;;;;23.31;47.76;101914.03;5076053;27;69527;-72
2023/06/24 08:11:38;;;;;;;;;3.25;3.25;;;;;23.36;47.28;101911.09;5079239;28;69041;-72
2023/06/24 08:14:04;;;;;;;;;5.50;5.00;;;;;23.39;47.46;101896.66;5078516;27;45288;-72
2023/06/24 08:16:29;;;;;;;;;2.50;2.25;;;;;23.43;47.38;101898.22;5078848;28;45249;-72
2023/06/24 08:18:55;;;;;;;;;4.00;3.75;;;;;23.46;47.16;101903.34;5074786;28;49588;-72
2023/06/24 08:21:20;;;;;;;;;3.50;3.25;;;;;23.52;47.16;101899.44;5078677;28;45514;-72
2023/06/24 08:23:46;;;;;;;;;6.25;5.00;;;;;23.53;47.04;101898.47;5076395;27;45471;-72
2023/06/24 08:26:12;;;;;;;;;7.00;5.50;;;;;23.62;47.53;101898.75;5076534;28;45802;-72
2023/06/24 08:28:37;;;;;;;;;3.25;2.75;;;;;23.71;47.08;101900.00;5075867;28;45275;-73
2023/06/24 08:31:02;;;;;;;;;4.50;4.50;;;;;23.80;47.12;101898.53;5078147;28;45247;-73
2023/06/24 08:33:28;;;;;;;;;5.00;4.50;;;;;23.86;46.56;101901.69;5077467;27;70466;-74
2023/06/24 08:35:53;;;;;;;;;3.75;2.00;;;;;23.92;46.28;101897.78;5075610;27;45294;-74
2023/06/24 08:38:18;;;;;;;;;5.50;4.25;;;;;23.98;45.97;101885.81;5080022;27;45240;-73
2023/06/24 08:40:44;;;;;;;;;5.00;4.00;;;;;24.08;45.73;101884.22;5078159;27;45500;-75
2023/06/24 08:43:09;;;;;;;;;4.50;3.00;;;;;24.14;45.72;101891.88;5087341;27;45322;-73
2023/06/24 08:45:35;;;;;;;;;4.25;2.25;;;;;24.20;45.44;101888.78;5078171;27;45265;-73
2023/06/24 08:48:04;;;;;;;;;3.25;3.25;;;;;24.30;45.20;101886.34;5076752;27;66306;-73
2023/06/24 08:50:34;;;;;;;;;5.00;3.75;;;;;24.40;45.04;101882.09;5073657;28;45664;-73
2023/06/24 08:53:03;;;;;;;;;5.00;4.25;;;;;24.51;45.05;101886.72;5080380;27;45581;-73
2023/06/24 08:55:31;;;;;;;;;16.75;14.00;;;;;24.55;44.47;101879.38;5076434;27;45722;-73
2023/06/24 08:57:57;;;;;;;;;3.75;3.75;;;;;24.62;44.09;101876.16;5090457;27;45472;-73
2023/06/24 09:00:22;;;;;;;;;5.75;4.50;;;;;24.68;44.08;101868.69;5085420;27;57769;-74
2023/06/24 09:02:47;;;;;;;;;7.00;5.75;;;;;24.76;43.99;101874.38;5079219;27;71713;-73
2023/06/24 09:05:13;;;;;;;;;8.50;5.50;;;;;24.82;44.35;101873.94;5078090;27;45348;-74
2023/06/24 09:07:38;;;;;;;;;5.00;5.00;;;;;24.85;43.74;101867.53;5073767;27;45395;-74
2023/06/24 09:10:04;;;;;;;;;9.00;7.25;;;;;24.87;43.46;101869.13;5106767;27;65439;-74
2023/06/24 09:12:32;;;;;;;;;18.25;15.50;;;;;24.90;43.03;101862.72;5079957;27;46193;-74
2023/06/24 09:14:58;;;;;;;;;5.50;5.25;;;;;24.93;42.60;101858.00;5079939;27;45426;-74
2023/06/24 09:17:24;;;;;;;;;52.25;39.50;;;;;24.99;43.04;101849.53;5085654;27;45376;-74
2023/06/24 09:19:50;;;;;;;;;6.75;6.75;;;;;25.08;43.21;101848.03;5078906;27;45383;-74
2023/06/24 09:22:19;;;;;;;;;11.75;6.50;;;;;25.14;43.03;101844.91;5084870;27;46711;-75
2023/06/24 09:24:46;;;;;;;;;4.75;4.00;;;;;25.18;42.75;101849.09;5075761;27;45365;-74
2023/06/24 09:27:13;;;;;;;;;7.75;5.25;;;;;25.25;42.90;101848.66;5083862;27;45441;-75
2023/06/24 09:29:38;;;;;;;;;5.00;5.00;;;;;25.30;41.94;101851.88;5071341;28;45651;-74
2023/06/24 09:32:04;;;;;;;;;5.25;3.00;;;;;25.35;42.19;101847.03;5077094;27;72294;-75
2023/06/24 09:34:31;;;;;;;;;5.00;2.50;;;;;25.42;42.26;101845.63;5074930;27;45473;-73
2023/06/24 09:36:57;;;;;;;;;4.25;3.75;;;;;25.48;42.35;101849.69;5062058;27;45835;-73
2023/06/24 09:39:29;;;;;;;;;16.00;10.50;;;;;25.53;42.19;101834.13;5073572;27;45371;-73
2023/06/24 09:42:00;;;;;;;;;15.75;13.00;;;;;25.58;42.35;101834.66;5064436;28;46117;-73
2023/06/24 09:44:26;;;;;;;;;7.50;4.75;;;;;25.63;41.71;101826.28;5077883;27;45403;-72
2023/06/24 09:46:52;;;;;;;;;4.00;4.00;;;;;25.65;41.55;101819.81;5069617;28;45468;-75
2023/06/24 09:49:17;;;;;;;;;10.50;4.75;;;;;25.71;41.58;101821.19;5103943;27;45552;-73
2023/06/24 09:51:47;;;;;;;;;7.25;6.50;;;;;25.75;41.90;101818.19;5072000;28;66296;-74
2023/06/24 09:54:14;;;;;;;;;6.25;4.25;;;;;25.76;41.54;101824.38;5074819;27;45625;-73
2023/06/24 09:56:46;;;;;;;;;3.25;3.00;;;;;25.76;41.42;101805.63;5076252;28;45354;-73
2023/06/24 09:59:13;;;;;;;;;4.25;4.25;;;;;25.84;41.48;101815.78;5075346;27;45427;-72
2023/06/24 10:01:39;;;;;;;;;4.25;4.00;;;;;25.89;41.89;101814.47;5073915;28;45569;-73
2023/06/24 10:04:09;;;;;;;;;4.00;3.00;;;;;25.98;41.94;101809.44;5075456;27;45418;-72
2023/06/24 10:06:35;;;;;;;;;2.75;2.75;;;;;26.01;41.69;101799.31;5078481;28;45484;-74
2023/06/24 10:09:01;;;;;;;;;9.25;4.00;;;;;26.06;41.41;101796.28;5079147;28;73139;-74
2023/06/24 10:11:26;;;;;;;;;5.25;5.25;;;;;26.11;41.28;101797.63;5081318;28;47201;-74
2023/06/24 10:13:52;;;;;;;;;5.50;5.00;;;;;26.17;40.89;101793.66;5075572;28;53059;-73
2023/06/24 10:16:18;;;;;;;;;8.75;6.00;;;;;26.18;42.05;101786.44;5080357;28;45414;-74
2023/06/24 10:18:44;;;;;;;;;8.00;5.75;;;;;26.26;41.44;101784.88;5075318;28;46318;-73
2023/06/24 10:21:10;;;;;;;;;6.75;4.00;;;;;26.26;41.30;101782.19;5081328;28;46455;-75
2023/06/24 10:23:48;;;;;;;;;4.50;4.50;;;;;26.27;41.43;101783.91;5073790;28;45722;-74
2023/06/24 10:26:25;;;;;;;;;6.00;4.00;;;;;26.32;41.49;101781.72;5078656;28;45382;-74
2023/06/24 10:29:06;;;;;;;;;4.75;4.75;;;;;26.40;41.50;101773.09;5076815;28;46033;-74
2023/06/24 10:31:50;;;;;;;;;4.00;4.00;;;;;26.43;41.10;101774.66;5078570;28;45660;-74
2023/06/24 10:34:28;;;;;;;;;5.75;4.75;;;;;26.45;41.41;101770.88;5091834;27;45432;-74
2023/06/24 10:37:13;;;;;;;;;4.25;3.50;;;;;26.50;41.12;101768.69;5110749;27;45370;-74
2023/06/24 10:39:39;;;;;;;;;7.00;4.00;;;;;26.52;40.82;101760.50;5073245;27;45567;-73
2023/06/24 10:42:30;;;;;;;;;6.75;5.00;;;;;26.58;41.10;101753.81;5079428;27;46180;-73
2023/06/24 10:44:57;;;;;;;;;7.25;5.25;;;;;26.58;40.98;101757.38;5068320;28;45359;-73
2023/06/24 10:47:23;;;;;;;;;8.00;6.75;;;;;26.59;40.50;101740.25;5066170;28;45413;-72
2023/06/24 10:49:49;;;;;;;;;8.00;7.00;;;;;26.65;40.93;101745.19;5079080;28;45438;-75
2023/06/24 10:52:18;;;;;;;;;8.25;6.75;;;;;26.71;40.68;101750.06;5073604;28;45439;-72
2023/06/24 10:54:43;;;;;;;;;8.75;7.50;;;;;26.76;40.54;101744.34;5060217;28;45662;-74
2023/06/24 10:57:11;;;;;;;;;7.75;5.00;;;;;26.81;40.96;101746.66;5078136;28;71294;-72
2023/06/24 10:59:47;;;;;;;;;9.25;6.00;;;;;26.85;40.65;101737.38;5056920;28;45454;-73
2023/06/24 11:02:20;;;;;;;;;10.00;9.25;;;;;26.90;41.23;101735.19;5077101;28;45346;-73
2023/06/24 11:04:47;;;;;;;;;8.00;7.00;;;;;26.95;40.41;101740.16;5078991;27;45463;-72
2023/06/24 11:07:13;;;;;;;;;7.25;6.75;;;;;26.98;40.86;101724.66;5078219;28;45449;-73
2023/06/24 11:09:40;;;;;;;;;6.50;6.00;;;;;27.00;40.05;101727.22;5074853;28;45898;-74
2023/06/24 11:12:07;;;;;;;;;9.00;6.00;;;;;27.02;40.22;101725.25;5089665;27;47148;-73
2023/06/24 11:14:34;;;;;;;;;10.00;6.00;;;;;27.03;40.11;101722.44;5077461;27;45678;-73
2023/06/24 11:17:03;;;;;;;;;13.50;12.00;;;;;27.06;40.21;101716.81;5094316;27;45496;-74
2023/06/24 11:19:30;;;;;;;;;11.00;9.75;;;;;27.13;39.95;101725.25;5079131;27;45691;-73
2023/06/24 11:21:59;;;;;;;;;8.50;5.50;;;;;27.17;39.81;101720.47;5100376;27;46271;-73
2023/06/24 11:24:24;;;;;;;;;11.00;6.50;;;;;27.22;40.43;101711.06;5072364;27;45501;-73